sensor_id;sensor_type;location;lat;lon;timestamp;temperature;humidity
27544;DHT22;17996;51.056;3.656;2023-09-08T00:01:49;22.00;99.90
27544;DHT22;17996;51.056;3.656;2023-09-08T00:04:15;22.00;99.90
27544;DHT22;17996;51.056;3.656;2023-09-08T00:06:41;22.00;99.90
27544;DHT22;17996;51.056;3.656;2023-09-08T00:09:07;22.00;99.90
27544;DHT22;17996;51.056;3.656;2023-09-08T00:11:33;21.90;99.90
27544;DHT22;17996;51.056;3.656;2023-09-08T00:13:59;21.90;99.90
27544;DHT22;17996;51.056;3.656;2023-09-08T00:16:24;21.90;99.90
27544;DHT22;17996;51.056;3.656;2023-09-08T00:18:50;21.90;99.90
27544;DHT22;17996;51.056;3.656;2023-09-08T00:21:16;21.90;99.90
27544;DHT22;17996;51.056;3.656;2023-09-08T00:23:42;21.90;99.90
27544;DHT22;17996;51.056;3.656;2023-09-08T00:26:07;21.90;99.90
27544;DHT22;17996;51.056;3.656;2023-09-08T00:28:33;21.80;99.90
27544;DHT22;17996;51.056;3.656;2023-09-08T00:30:58;21.80;99.90
27544;DHT22;17996;51.056;3.656;2023-09-08T00:33:27;21.80;99.90
27544;DHT22;17996;51.056;3.656;2023-09-08T00:35:53;21.80;99.90
27544;DHT22;17996;51.056;3.656;2023-09-08T00:38:19;21.80;99.90
27544;DHT22;17996;51.056;3.656;2023-09-08T00:40:45;21.70;99.90
27544;DHT22;17996;51.056;3.656;2023-09-08T00:43:11;21.70;99.90
27544;DHT22;17996;51.056;3.656;2023-09-08T00:45:40;21.70;99.90
27544;DHT22;17996;51.056;3.656;2023-09-08T00:48:07;21.70;99.90
27544;DHT22;17996;51.056;3.656;2023-09-08T00:50:33;21.70;99.90
27544;DHT22;17996;51.056;3.656;2023-09-08T00:52:59;21.70;99.90
27544;DHT22;17996;51.056;3.656;2023-09-08T00:55:25;21.70;99.90
27544;DHT22;17996;51.056;3.656;2023-09-08T00:57:51;21.70;99.90
27544;DHT22;17996;51.056;3.656;2023-09-08T01:00:16;21.70;99.90
27544;DHT22;17996;51.056;3.656;2023-09-08T01:02:43;21.60;99.90
27544;DHT22;17996;51.056;3.656;2023-09-08T01:05:11;21.60;99.90
27544;DHT22;17996;51.056;3.656;2023-09-08T01:07:37;21.60;99.90
27544;DHT22;17996;51.056;3.656;2023-09-08T01:10:03;21.60;99.90
27544;DHT22;17996;51.056;3.656;2023-09-08T01:12:31;21.50;99.90
27544;DHT22;17996;51.056;3.656;2023-09-08T01:14:58;21.50;99.90
27544;DHT22;17996;51.056;3.656;2023-09-08T01:17:25;21.50;99.90
27544;DHT22;17996;51.056;3.656;2023-09-08T01:19:52;21.50;99.90
27544;DHT22;17996;51.056;3.656;2023-09-08T01:22:43;21.50;99.90
27544;DHT22;17996;51.056;3.656;2023-09-08T01:25:22;21.50;99.90
27544;DHT22;17996;51.056;3.656;2023-09-08T01:27:56;21.50;99.90
27544;DHT22;17996;51.056;3.656;2023-09-08T01:30:24;21.40;99.90
27544;DHT22;17996;51.056;3.656;2023-09-08T01:32:51;21.40;99.90
27544;DHT22;17996;51.056;3.656;2023-09-08T01:35:18;21.40;99.90
27544;DHT22;17996;51.056;3.656;2023-09-08T01:37:48;21.40;99.90
27544;DHT22;17996;51.056;3.656;2023-09-08T01:40:15;21.40;99.90
27544;DHT22;17996;51.056;3.656;2023-09-08T01:42:41;21.40;99.90
27544;DHT22;17996;51.056;3.656;2023-09-08T01:45:07;21.40;99.90
27544;DHT22;17996;51.056;3.656;2023-09-08T01:47:34;21.40;99.90
27544;DHT22;17996;51.056;3.656;2023-09-08T01:50:00;21.30;99.90
27544;DHT22;17996;51.056;3.656;2023-09-08T01:52:26;21.30;99.90
27544;DHT22;17996;51.056;3.656;2023-09-08T01:54:52;21.30;99.90
27544;DHT22;17996;51.056;3.656;2023-09-08T01:57:18;21.30;99.90
27544;DHT22;17996;51.056;3.656;2023-09-08T01:59:44;21.30;99.90
27544;DHT22;17996;51.056;3.656;2023-09-08T02:02:13;21.30;99.90
27544;DHT22;17996;51.056;3.656;2023-09-08T02:04:39;21.30;99.90
27544;DHT22;17996;51.056;3.656;2023-09-08T02:07:05;21.30;99.90
27544;DHT22;17996;51.056;3.656;2023-09-08T02:09:32;21.30;99.90
27544;DHT22;17996;51.056;3.656;2023-09-08T02:11:58;21.30;99.90
27544;DHT22;17996;51.056;3.656;2023-09-08T02:14:24;21.20;99.90
27544;DHT22;17996;51.056;3.656;2023-09-08T02:16:49;21.20;99.90
27544;DHT22;17996;51.056;3.656;2023-09-08T02:19:15;21.20;99.90
27544;DHT22;17996;51.056;3.656;2023-09-08T02:21:41;21.20;99.90
27544;DHT22;17996;51.056;3.656;2023-09-08T02:24:06;21.20;99.90
27544;DHT22;17996;51.056;3.656;2023-09-08T02:26:32;21.20;99.90
27544;DHT22;17996;51.056;3.656;2023-09-08T02:29:00;21.20;99.90
27544;DHT22;17996;51.056;3.656;2023-09-08T02:31:28;21.20;99.90
27544;DHT22;17996;51.056;3.656;2023-09-08T02:33:54;21.20;99.90
27544;DHT22;17996;51.056;3.656;2023-09-08T02:36:19;21.10;99.90
27544;DHT22;17996;51.056;3.656;2023-09-08T02:38:54;21.10;99.90
27544;DHT22;17996;51.056;3.656;2023-09-08T02:41:20;21.10;99.90
27544;DHT22;17996;51.056;3.656;2023-09-08T02:43:47;21.10;99.90
27544;DHT22;17996;51.056;3.656;2023-09-08T02:46:13;21.10;99.90
27544;DHT22;17996;51.056;3.656;2023-09-08T02:48:39;21.10;99.90
27544;DHT22;17996;51.056;3.656;2023-09-08T02:51:05;21.10;99.90
27544;DHT22;17996;51.056;3.656;2023-09-08T02:53:31;21.10;99.90
27544;DHT22;17996;51.056;3.656;2023-09-08T02:55:57;21.10;99.90
27544;DHT22;17996;51.056;3.656;2023-09-08T02:58:24;21.10;99.90
27544;DHT22;17996;51.056;3.656;2023-09-08T03:00:50;21.00;99.90
27544;DHT22;17996;51.056;3.656;2023-09-08T03:03:21;21.00;99.90
27544;DHT22;17996;51.056;3.656;2023-09-08T03:05:47;21.00;99.90
27544;DHT22;17996;51.056;3.656;2023-09-08T03:08:13;21.00;99.90
27544;DHT22;17996;51.056;3.656;2023-09-08T03:10:39;21.00;99.90
27544;DHT22;17996;51.056;3.656;2023-09-08T03:13:05;21.00;99.90
27544;DHT22;17996;51.056;3.656;2023-09-08T03:15:31;21.00;99.90
27544;DHT22;17996;51.056;3.656;2023-09-08T03:17:57;21.00;99.90
27544;DHT22;17996;51.056;3.656;2023-09-08T03:20:27;21.00;99.90
27544;DHT22;17996;51.056;3.656;2023-09-08T03:22:54;20.90;99.90
27544;DHT22;17996;51.056;3.656;2023-09-08T03:25:20;20.90;99.90
27544;DHT22;17996;51.056;3.656;2023-09-08T03:27:46;20.90;99.90
27544;DHT22;17996;51.056;3.656;2023-09-08T03:30:12;20.90;99.90
27544;DHT22;17996;51.056;3.656;2023-09-08T03:32:38;20.90;99.90
27544;DHT22;17996;51.056;3.656;2023-09-08T03:35:04;20.90;99.90
27544;DHT22;17996;51.056;3.656;2023-09-08T03:37:34;20.90;99.90
27544;DHT22;17996;51.056;3.656;2023-09-08T03:40:00;20.90;99.90
27544;DHT22;17996;51.056;3.656;2023-09-08T03:42:26;20.80;99.90
27544;DHT22;17996;51.056;3.656;2023-09-08T03:44:51;20.80;99.90
27544;DHT22;17996;51.056;3.656;2023-09-08T03:47:17;20.80;99.90
27544;DHT22;17996;51.056;3.656;2023-09-08T03:49:43;20.80;99.90
27544;DHT22;17996;51.056;3.656;2023-09-08T03:52:08;20.80;99.90
27544;DHT22;17996;51.056;3.656;2023-09-08T03:54:34;20.80;99.90
27544;DHT22;17996;51.056;3.656;2023-09-08T03:57:00;20.70;99.90
27544;DHT22;17996;51.056;3.656;2023-09-08T03:59:25;20.70;99.90
27544;DHT22;17996;51.056;3.656;2023-09-08T04:01:51;20.70;99.90
27544;DHT22;17996;51.056;3.656;2023-09-08T04:04:17;20.70;99.90
27544;DHT22;17996;51.056;3.656;2023-09-08T04:06:45;20.70;99.90
27544;DHT22;17996;51.056;3.656;2023-09-08T04:09:11;20.70;99.90
27544;DHT22;17996;51.056;3.656;2023-09-08T04:11:36;20.70;99.90
27544;DHT22;17996;51.056;3.656;2023-09-08T04:14:02;20.70;99.90
27544;DHT22;17996;51.056;3.656;2023-09-08T04:16:28;20.70;99.90
27544;DHT22;17996;51.056;3.656;2023-09-08T04:18:54;20.70;99.90
27544;DHT22;17996;51.056;3.656;2023-09-08T04:21:20;20.60;99.90
27544;DHT22;17996;51.056;3.656;2023-09-08T04:23:46;20.60;99.90
27544;DHT22;17996;51.056;3.656;2023-09-08T04:26:12;20.60;99.90
27544;DHT22;17996;51.056;3.656;2023-09-08T04:28:38;20.60;99.90
27544;DHT22;17996;51.056;3.656;2023-09-08T04:31:04;20.60;99.90
27544;DHT22;17996;51.056;3.656;2023-09-08T04:33:30;20.60;99.90
27544;DHT22;17996;51.056;3.656;2023-09-08T04:35:56;20.60;99.90
27544;DHT22;17996;51.056;3.656;2023-09-08T04:38:21;20.50;99.90
27544;DHT22;17996;51.056;3.656;2023-09-08T04:40:47;20.50;99.90
27544;DHT22;17996;51.056;3.656;2023-09-08T04:43:13;20.50;99.90
27544;DHT22;17996;51.056;3.656;2023-09-08T04:45:39;20.50;99.90
27544;DHT22;17996;51.056;3.656;2023-09-08T04:48:05;20.50;99.90
27544;DHT22;17996;51.056;3.656;2023-09-08T04:50:30;20.50;99.90
27544;DHT22;17996;51.056;3.656;2023-09-08T04:52:56;20.40;99.90
27544;DHT22;17996;51.056;3.656;2023-09-08T04:55:22;20.40;99.90
27544;DHT22;17996;51.056;3.656;2023-09-08T04:57:47;20.40;99.90
27544;DHT22;17996;51.056;3.656;2023-09-08T05:00:15;20.40;99.90
27544;DHT22;17996;51.056;3.656;2023-09-08T05:02:40;20.40;99.90
27544;DHT22;17996;51.056;3.656;2023-09-08T05:05:06;20.30;99.90
27544;DHT22;17996;51.056;3.656;2023-09-08T05:07:32;20.30;99.90
27544;DHT22;17996;51.056;3.656;2023-09-08T05:09:58;20.30;99.90
27544;DHT22;17996;51.056;3.656;2023-09-08T05:12:24;20.30;99.90
27544;DHT22;17996;51.056;3.656;2023-09-08T05:14:49;20.30;99.90
27544;DHT22;17996;51.056;3.656;2023-09-08T05:17:21;20.30;99.90
27544;DHT22;17996;51.056;3.656;2023-09-08T05:19:47;20.30;99.90
27544;DHT22;17996;51.056;3.656;2023-09-08T05:22:12;20.30;99.90
27544;DHT22;17996;51.056;3.656;2023-09-08T05:24:38;20.30;99.90
27544;DHT22;17996;51.056;3.656;2023-09-08T05:27:04;20.30;99.90
27544;DHT22;17996;51.056;3.656;2023-09-08T05:29:30;20.30;99.90
27544;DHT22;17996;51.056;3.656;2023-09-08T05:31:55;20.30;99.90
27544;DHT22;17996;51.056;3.656;2023-09-08T05:34:21;20.30;99.90
27544;DHT22;17996;51.056;3.656;2023-09-08T05:36:47;20.30;99.90
27544;DHT22;17996;51.056;3.656;2023-09-08T05:39:15;20.30;99.90
27544;DHT22;17996;51.056;3.656;2023-09-08T05:41:40;20.30;99.90
27544;DHT22;17996;51.056;3.656;2023-09-08T05:44:06;20.30;99.90
27544;DHT22;17996;51.056;3.656;2023-09-08T05:46:32;20.30;99.90
27544;DHT22;17996;51.056;3.656;2023-09-08T05:48:57;20.30;99.90
27544;DHT22;17996;51.056;3.656;2023-09-08T05:51:23;20.30;99.90
27544;DHT22;17996;51.056;3.656;2023-09-08T05:53:49;20.30;99.90
27544;DHT22;17996;51.056;3.656;2023-09-08T05:56:15;20.30;99.90
27544;DHT22;17996;51.056;3.656;2023-09-08T05:58:40;20.30;99.90
27544;DHT22;17996;51.056;3.656;2023-09-08T06:01:06;20.30;99.90
27544;DHT22;17996;51.056;3.656;2023-09-08T06:03:32;20.30;99.90
27544;DHT22;17996;51.056;3.656;2023-09-08T06:05:58;20.30;99.90
27544;DHT22;17996;51.056;3.656;2023-09-08T06:08:24;20.30;99.90
27544;DHT22;17996;51.056;3.656;2023-09-08T06:10:50;20.30;99.90
27544;DHT22;17996;51.056;3.656;2023-09-08T06:13:15;20.40;99.90
27544;DHT22;17996;51.056;3.656;2023-09-08T06:15:41;20.40;99.90
27544;DHT22;17996;51.056;3.656;2023-09-08T06:18:07;20.40;99.90
27544;DHT22;17996;51.056;3.656;2023-09-08T06:20:33;20.40;99.90
27544;DHT22;17996;51.056;3.656;2023-09-08T06:22:59;20.40;99.90
27544;DHT22;17996;51.056;3.656;2023-09-08T06:25:26;20.50;99.90
27544;DHT22;17996;51.056;3.656;2023-09-08T06:27:51;20.50;99.90
27544;DHT22;17996;51.056;3.656;2023-09-08T06:30:17;20.50;99.90
27544;DHT22;17996;51.056;3.656;2023-09-08T06:32:43;20.50;99.90
27544;DHT22;17996;51.056;3.656;2023-09-08T06:35:09;20.60;99.90
27544;DHT22;17996;51.056;3.656;2023-09-08T06:37:38;20.60;99.90
27544;DHT22;17996;51.056;3.656;2023-09-08T06:40:05;20.60;99.90
27544;DHT22;17996;51.056;3.656;2023-09-08T06:42:32;20.60;99.90
27544;DHT22;17996;51.056;3.656;2023-09-08T06:44:59;20.60;99.90
27544;DHT22;17996;51.056;3.656;2023-09-08T06:47:25;20.70;99.90
27544;DHT22;17996;51.056;3.656;2023-09-08T06:49:51;20.70;99.90
27544;DHT22;17996;51.056;3.656;2023-09-08T06:52:17;20.70;99.90
27544;DHT22;17996;51.056;3.656;2023-09-08T06:54:43;20.80;99.90
27544;DHT22;17996;51.056;3.656;2023-09-08T06:57:12;20.80;99.90
27544;DHT22;17996;51.056;3.656;2023-09-08T06:59:37;20.80;99.90
27544;DHT22;17996;51.056;3.656;2023-09-08T07:02:03;20.90;99.90
27544;DHT22;17996;51.056;3.656;2023-09-08T07:04:30;20.90;99.90
27544;DHT22;17996;51.056;3.656;2023-09-08T07:06:56;20.90;99.90
27544;DHT22;17996;51.056;3.656;2023-09-08T07:09:21;20.90;99.90
27544;DHT22;17996;51.056;3.656;2023-09-08T07:11:47;21.00;99.90
27544;DHT22;17996;51.056;3.656;2023-09-08T07:14:13;21.00;99.90
27544;DHT22;17996;51.056;3.656;2023-09-08T07:16:39;21.10;99.90
27544;DHT22;17996;51.056;3.656;2023-09-08T07:19:05;21.10;99.90
27544;DHT22;17996;51.056;3.656;2023-09-08T07:21:30;21.10;99.90
27544;DHT22;17996;51.056;3.656;2023-09-08T07:23:56;21.10;99.90
27544;DHT22;17996;51.056;3.656;2023-09-08T07:26:22;21.20;99.90
27544;DHT22;17996;51.056;3.656;2023-09-08T07:28:48;21.20;99.90
27544;DHT22;17996;51.056;3.656;2023-09-08T07:31:14;21.30;99.90
27544;DHT22;17996;51.056;3.656;2023-09-08T07:33:40;21.30;99.90
27544;DHT22;17996;51.056;3.656;2023-09-08T07:36:07;21.40;99.90
27544;DHT22;17996;51.056;3.656;2023-09-08T07:38:34;21.40;99.90
27544;DHT22;17996;51.056;3.656;2023-09-08T07:41:01;21.40;99.90
27544;DHT22;17996;51.056;3.656;2023-09-08T07:43:27;21.40;99.90
27544;DHT22;17996;51.056;3.656;2023-09-08T07:45:53;21.50;99.90
27544;DHT22;17996;51.056;3.656;2023-09-08T07:48:19;21.50;99.90
27544;DHT22;17996;51.056;3.656;2023-09-08T07:50:44;21.60;99.90
27544;DHT22;17996;51.056;3.656;2023-09-08T07:53:10;21.70;99.90
27544;DHT22;17996;51.056;3.656;2023-09-08T07:55:36;21.70;99.90
27544;DHT22;17996;51.056;3.656;2023-09-08T07:58:02;21.80;99.90
27544;DHT22;17996;51.056;3.656;2023-09-08T08:00:32;21.80;99.90
27544;DHT22;17996;51.056;3.656;2023-09-08T08:02:58;21.90;99.90
27544;DHT22;17996;51.056;3.656;2023-09-08T08:05:25;21.90;99.90
27544;DHT22;17996;51.056;3.656;2023-09-08T08:07:51;21.90;99.90
27544;DHT22;17996;51.056;3.656;2023-09-08T08:10:17;22.00;99.90
27544;DHT22;17996;51.056;3.656;2023-09-08T08:12:43;22.00;99.90
27544;DHT22;17996;51.056;3.656;2023-09-08T08:15:10;22.10;99.90
27544;DHT22;17996;51.056;3.656;2023-09-08T08:17:37;22.10;99.90
27544;DHT22;17996;51.056;3.656;2023-09-08T08:20:04;22.20;99.90
27544;DHT22;17996;51.056;3.656;2023-09-08T08:22:35;22.20;99.90
27544;DHT22;17996;51.056;3.656;2023-09-08T08:25:01;22.30;99.90
27544;DHT22;17996;51.056;3.656;2023-09-08T08:27:27;22.30;99.90
27544;DHT22;17996;51.056;3.656;2023-09-08T08:29:52;22.40;99.90
27544;DHT22;17996;51.056;3.656;2023-09-08T08:32:18;22.50;99.90
27544;DHT22;17996;51.056;3.656;2023-09-08T08:34:44;22.50;99.90
27544;DHT22;17996;51.056;3.656;2023-09-08T08:37:10;22.50;99.90
27544;DHT22;17996;51.056;3.656;2023-09-08T08:39:36;22.60;99.90
27544;DHT22;17996;51.056;3.656;2023-09-08T08:42:11;22.60;99.90
27544;DHT22;17996;51.056;3.656;2023-09-08T08:44:38;22.60;99.90
27544;DHT22;17996;51.056;3.656;2023-09-08T08:47:06;22.70;99.90
27544;DHT22;17996;51.056;3.656;2023-09-08T08:49:33;22.70;99.90
27544;DHT22;17996;51.056;3.656;2023-09-08T08:51:59;22.80;99.90
27544;DHT22;17996;51.056;3.656;2023-09-08T08:54:26;22.90;99.90
27544;DHT22;17996;51.056;3.656;2023-09-08T08:56:51;22.90;99.90
27544;DHT22;17996;51.056;3.656;2023-09-08T08:59:18;22.90;99.90
27544;DHT22;17996;51.056;3.656;2023-09-08T09:01:44;23.00;99.90
27544;DHT22;17996;51.056;3.656;2023-09-08T09:04:11;23.10;99.90
27544;DHT22;17996;51.056;3.656;2023-09-08T09:06:37;23.10;99.90
27544;DHT22;17996;51.056;3.656;2023-09-08T09:09:03;23.10;99.90
27544;DHT22;17996;51.056;3.656;2023-09-08T09:11:33;23.20;99.90
27544;DHT22;17996;51.056;3.656;2023-09-08T09:13:59;23.20;99.90
27544;DHT22;17996;51.056;3.656;2023-09-08T09:16:25;23.30;99.90
27544;DHT22;17996;51.056;3.656;2023-09-08T09:18:58;23.30;99.90
27544;DHT22;17996;51.056;3.656;2023-09-08T09:21:25;23.40;99.90
27544;DHT22;17996;51.056;3.656;2023-09-08T09:24:06;23.40;99.90
27544;DHT22;17996;51.056;3.656;2023-09-08T09:26:31;23.40;99.90
27544;DHT22;17996;51.056;3.656;2023-09-08T09:28:57;23.50;99.90
27544;DHT22;17996;51.056;3.656;2023-09-08T09:31:25;23.50;99.90
27544;DHT22;17996;51.056;3.656;2023-09-08T09:34:04;23.60;99.90
27544;DHT22;17996;51.056;3.656;2023-09-08T09:36:31;23.70;99.90
27544;DHT22;17996;51.056;3.656;2023-09-08T09:39:00;23.80;99.90
27544;DHT22;17996;51.056;3.656;2023-09-08T09:41:28;23.80;99.90
27544;DHT22;17996;51.056;3.656;2023-09-08T09:43:54;23.90;99.90
27544;DHT22;17996;51.056;3.656;2023-09-08T09:46:20;24.00;99.90
27544;DHT22;17996;51.056;3.656;2023-09-08T09:48:50;24.10;99.90
27544;DHT22;17996;51.056;3.656;2023-09-08T09:51:19;24.10;99.90
27544;DHT22;17996;51.056;3.656;2023-09-08T09:53:45;24.10;99.90
27544;DHT22;17996;51.056;3.656;2023-09-08T09:56:11;24.10;99.90
27544;DHT22;17996;51.056;3.656;2023-09-08T09:58:39;24.10;99.90
27544;DHT22;17996;51.056;3.656;2023-09-08T10:01:05;24.10;99.90
27544;DHT22;17996;51.056;3.656;2023-09-08T10:03:31;24.20;99.90
27544;DHT22;17996;51.056;3.656;2023-09-08T10:05:59;24.20;99.90
27544;DHT22;17996;51.056;3.656;2023-09-08T10:08:25;24.20;99.90
27544;DHT22;17996;51.056;3.656;2023-09-08T10:10:50;24.30;99.90
27544;DHT22;17996;51.056;3.656;2023-09-08T10:13:27;24.30;99.90
27544;DHT22;17996;51.056;3.656;2023-09-08T10:15:57;24.40;99.90
27544;DHT22;17996;51.056;3.656;2023-09-08T10:18:24;24.40;99.90
27544;DHT22;17996;51.056;3.656;2023-09-08T10:20:52;24.40;99.90
27544;DHT22;17996;51.056;3.656;2023-09-08T10:23:25;24.40;99.90
27544;DHT22;17996;51.056;3.656;2023-09-08T10:25:56;24.50;99.90
27544;DHT22;17996;51.056;3.656;2023-09-08T10:28:23;24.60;99.90
27544;DHT22;17996;51.056;3.656;2023-09-08T10:30:49;24.60;99.90
27544;DHT22;17996;51.056;3.656;2023-09-08T10:33:16;24.60;99.90
27544;DHT22;17996;51.056;3.656;2023-09-08T10:35:43;24.70;99.90
27544;DHT22;17996;51.056;3.656;2023-09-08T10:38:29;24.80;99.90
27544;DHT22;17996;51.056;3.656;2023-09-08T10:43:43;24.90;99.90
27544;DHT22;17996;51.056;3.656;2023-09-08T10:46:09;24.80;99.90
27544;DHT22;17996;51.056;3.656;2023-09-08T10:48:43;24.90;99.90
27544;DHT22;17996;51.056;3.656;2023-09-08T10:51:13;24.90;99.90
27544;DHT22;17996;51.056;3.656;2023-09-08T10:53:39;24.90;99.90
27544;DHT22;17996;51.056;3.656;2023-09-08T10:56:05;24.90;99.90
27544;DHT22;17996;51.056;3.656;2023-09-08T11:01:16;25.00;99.90
27544;DHT22;17996;51.056;3.656;2023-09-08T11:03:45;25.10;99.90
27544;DHT22;17996;51.056;3.656;2023-09-08T11:06:12;25.20;99.90
27544;DHT22;17996;51.056;3.656;2023-09-08T11:08:40;25.20;99.90
27544;DHT22;17996;51.056;3.656;2023-09-08T11:11:06;25.20;99.90
27544;DHT22;17996;51.056;3.656;2023-09-08T11:13:32;25.30;99.90
27544;DHT22;17996;51.056;3.656;2023-09-08T11:15:58;25.20;99.90
27544;DHT22;17996;51.056;3.656;2023-09-08T11:18:31;25.20;99.90
27544;DHT22;17996;51.056;3.656;2023-09-08T11:20:57;25.30;99.90
27544;DHT22;17996;51.056;3.656;2023-09-08T11:23:24;25.40;99.90
27544;DHT22;17996;51.056;3.656;2023-09-08T11:25:52;25.50;99.90
27544;DHT22;17996;51.056;3.656;2023-09-08T11:28:22;25.60;99.90
27544;DHT22;17996;51.056;3.656;2023-09-08T11:30:49;25.60;99.90
27544;DHT22;17996;51.056;3.656;2023-09-08T11:33:16;25.60;99.90
27544;DHT22;17996;51.056;3.656;2023-09-08T11:35:42;25.60;99.90
27544;DHT22;17996;51.056;3.656;2023-09-08T11:38:11;25.70;99.90
27544;DHT22;17996;51.056;3.656;2023-09-08T11:40:37;25.60;99.90
27544;DHT22;17996;51.056;3.656;2023-09-08T11:43:04;25.70;99.90
27544;DHT22;17996;51.056;3.656;2023-09-08T11:45:31;25.70;99.90
27544;DHT22;17996;51.056;3.656;2023-09-08T11:47:59;25.80;99.90
27544;DHT22;17996;51.056;3.656;2023-09-08T11:50:25;25.80;99.90
27544;DHT22;17996;51.056;3.656;2023-09-08T11:52:52;25.80;99.90
27544;DHT22;17996;51.056;3.656;2023-09-08T11:55:20;25.80;99.90
27544;DHT22;17996;51.056;3.656;2023-09-08T11:57:48;25.80;99.90
27544;DHT22;17996;51.056;3.656;2023-09-08T12:00:15;25.90;99.90
27544;DHT22;17996;51.056;3.656;2023-09-08T12:02:44;25.90;99.90
27544;DHT22;17996;51.056;3.656;2023-09-08T12:07:45;26.00;99.90
27544;DHT22;17996;51.056;3.656;2023-09-08T12:10:11;26.00;99.90
27544;DHT22;17996;51.056;3.656;2023-09-08T12:12:50;26.00;99.90
27544;DHT22;17996;51.056;3.656;2023-09-08T12:15:39;26.00;99.90
27544;DHT22;17996;51.056;3.656;2023-09-08T12:18:11;26.10;99.90
27544;DHT22;17996;51.056;3.656;2023-09-08T12:20:38;26.00;99.90
27544;DHT22;17996;51.056;3.656;2023-09-08T12:23:06;26.10;99.90
27544;DHT22;17996;51.056;3.656;2023-09-08T12:25:51;26.00;99.90
27544;DHT22;17996;51.056;3.656;2023-09-08T12:28:19;26.10;99.90
27544;DHT22;17996;51.056;3.656;2023-09-08T12:30:46;26.20;99.90
27544;DHT22;17996;51.056;3.656;2023-09-08T12:33:13;26.20;99.90
27544;DHT22;17996;51.056;3.656;2023-09-08T12:35:43;26.30;99.90
27544;DHT22;17996;51.056;3.656;2023-09-08T12:38:10;26.30;99.90
27544;DHT22;17996;51.056;3.656;2023-09-08T12:40:37;26.40;99.90
27544;DHT22;17996;51.056;3.656;2023-09-08T12:43:04;26.40;99.90
27544;DHT22;17996;51.056;3.656;2023-09-08T12:45:30;26.40;99.90
27544;DHT22;17996;51.056;3.656;2023-09-08T12:47:58;26.40;99.90
27544;DHT22;17996;51.056;3.656;2023-09-08T12:50:25;26.40;99.90
27544;DHT22;17996;51.056;3.656;2023-09-08T12:52:50;26.40;99.90
27544;DHT22;17996;51.056;3.656;2023-09-08T12:55:16;26.40;99.90
27544;DHT22;17996;51.056;3.656;2023-09-08T12:57:42;26.40;99.90
27544;DHT22;17996;51.056;3.656;2023-09-08T13:00:08;26.40;99.90
27544;DHT22;17996;51.056;3.656;2023-09-08T13:02:34;26.50;99.90
27544;DHT22;17996;51.056;3.656;2023-09-08T13:05:00;26.50;99.90
27544;DHT22;17996;51.056;3.656;2023-09-08T13:07:26;26.50;99.90
27544;DHT22;17996;51.056;3.656;2023-09-08T13:09:52;26.60;99.90
27544;DHT22;17996;51.056;3.656;2023-09-08T13:12:18;26.60;99.90
27544;DHT22;17996;51.056;3.656;2023-09-08T13:14:44;26.60;99.90
27544;DHT22;17996;51.056;3.656;2023-09-08T13:17:13;26.70;99.90
27544;DHT22;17996;51.056;3.656;2023-09-08T13:19:41;26.80;99.90
27544;DHT22;17996;51.056;3.656;2023-09-08T13:22:07;26.80;99.90
27544;DHT22;17996;51.056;3.656;2023-09-08T13:24:33;26.90;99.90
27544;DHT22;17996;51.056;3.656;2023-09-08T13:27:00;27.00;99.90
27544;DHT22;17996;51.056;3.656;2023-09-08T13:29:26;27.00;99.90
27544;DHT22;17996;51.056;3.656;2023-09-08T13:31:54;26.90;99.90
27544;DHT22;17996;51.056;3.656;2023-09-08T13:34:21;26.90;99.90
27544;DHT22;17996;51.056;3.656;2023-09-08T13:36:47;26.90;99.90
27544;DHT22;17996;51.056;3.656;2023-09-08T13:39:13;27.00;99.90
27544;DHT22;17996;51.056;3.656;2023-09-08T13:41:52;27.10;99.90
27544;DHT22;17996;51.056;3.656;2023-09-08T13:44:19;27.20;99.90
27544;DHT22;17996;51.056;3.656;2023-09-08T13:46:51;27.30;99.90
27544;DHT22;17996;51.056;3.656;2023-09-08T13:49:17;27.30;99.90
27544;DHT22;17996;51.056;3.656;2023-09-08T13:51:43;27.40;99.90
27544;DHT22;17996;51.056;3.656;2023-09-08T13:54:10;27.40;99.90
27544;DHT22;17996;51.056;3.656;2023-09-08T13:56:40;27.40;99.90
27544;DHT22;17996;51.056;3.656;2023-09-08T13:59:06;27.50;99.90
27544;DHT22;17996;51.056;3.656;2023-09-08T14:01:36;27.50;99.90
27544;DHT22;17996;51.056;3.656;2023-09-08T14:04:03;27.50;99.90
27544;DHT22;17996;51.056;3.656;2023-09-08T14:06:31;27.60;99.90
27544;DHT22;17996;51.056;3.656;2023-09-08T14:08:57;27.60;99.90
27544;DHT22;17996;51.056;3.656;2023-09-08T14:11:23;27.60;99.90
27544;DHT22;17996;51.056;3.656;2023-09-08T14:13:49;27.60;99.90
27544;DHT22;17996;51.056;3.656;2023-09-08T14:16:14;27.70;99.90
27544;DHT22;17996;51.056;3.656;2023-09-08T14:18:40;27.80;99.90
27544;DHT22;17996;51.056;3.656;2023-09-08T14:21:07;27.90;99.90
27544;DHT22;17996;51.056;3.656;2023-09-08T14:23:33;27.90;99.90
27544;DHT22;17996;51.056;3.656;2023-09-08T14:26:06;28.00;99.90
27544;DHT22;17996;51.056;3.656;2023-09-08T14:28:32;28.00;99.90
27544;DHT22;17996;51.056;3.656;2023-09-08T14:30:58;28.10;99.90
27544;DHT22;17996;51.056;3.656;2023-09-08T14:33:24;28.20;99.90
27544;DHT22;17996;51.056;3.656;2023-09-08T14:35:50;28.30;99.90
27544;DHT22;17996;51.056;3.656;2023-09-08T14:38:17;28.50;99.90
27544;DHT22;17996;51.056;3.656;2023-09-08T14:40:44;28.50;99.90
27544;DHT22;17996;51.056;3.656;2023-09-08T14:43:11;28.60;99.90
27544;DHT22;17996;51.056;3.656;2023-09-08T14:45:36;28.60;99.90
27544;DHT22;17996;51.056;3.656;2023-09-08T14:48:02;28.50;99.90
27544;DHT22;17996;51.056;3.656;2023-09-08T14:50:28;28.60;99.90
27544;DHT22;17996;51.056;3.656;2023-09-08T14:52:54;28.60;99.90
27544;DHT22;17996;51.056;3.656;2023-09-08T14:55:19;28.80;99.90
27544;DHT22;17996;51.056;3.656;2023-09-08T14:57:45;29.00;99.90
27544;DHT22;17996;51.056;3.656;2023-09-08T15:00:11;29.30;99.90
27544;DHT22;17996;51.056;3.656;2023-09-08T15:02:37;29.30;99.90
27544;DHT22;17996;51.056;3.656;2023-09-08T15:05:03;29.50;99.90
27544;DHT22;17996;51.056;3.656;2023-09-08T15:07:29;29.50;99.90
27544;DHT22;17996;51.056;3.656;2023-09-08T15:09:54;29.70;99.90
27544;DHT22;17996;51.056;3.656;2023-09-08T15:12:20;29.90;99.90
27544;DHT22;17996;51.056;3.656;2023-09-08T15:14:45;30.00;99.90
27544;DHT22;17996;51.056;3.656;2023-09-08T15:17:11;30.20;99.90
27544;DHT22;17996;51.056;3.656;2023-09-08T15:19:41;30.20;99.90
27544;DHT22;17996;51.056;3.656;2023-09-08T15:22:07;30.30;99.90
27544;DHT22;17996;51.056;3.656;2023-09-08T15:24:33;30.30;99.90
27544;DHT22;17996;51.056;3.656;2023-09-08T15:26:59;30.40;99.90
27544;DHT22;17996;51.056;3.656;2023-09-08T15:29:26;30.40;99.90
27544;DHT22;17996;51.056;3.656;2023-09-08T15:31:51;30.50;99.90
27544;DHT22;17996;51.056;3.656;2023-09-08T15:34:17;30.70;99.90
27544;DHT22;17996;51.056;3.656;2023-09-08T15:36:42;30.90;99.90